Time;durP1;ratioP1;P1;durP2;ratioP2;P2;SDS_P1;SDS_P2;PMS_P1;PMS_P2;Temp;Humidity;BMP_temperature;BMP_pressure;BME280_temperature;BME280_humidity;BME280_pressure;Samples;Min_cycle;Max_cycle;Signal;HPM_P1;HPM_P2
2021/11/03 00:02:19;;;;;;;;;13.50;9.00;;;;;18.04;100.00;99316.25;5058943;28;47210;-79
2021/11/03 00:04:44;;;;;;;;;12.75;11.00;;;;;18.05;100.00;99305.38;5060866;28;45303;-80
2021/11/03 00:07:11;;;;;;;;;2.00;1.00;;;;;18.06;100.00;99317.72;5045296;28;45430;-80
2021/11/03 00:09:38;;;;;;;;;18.75;14.00;;;;;17.97;100.00;99308.16;5056981;28;45401;-79
2021/11/03 00:12:07;;;;;;;;;17.75;12.75;;;;;17.88;100.00;99310.09;5039964;28;46106;-80
2021/11/03 00:14:32;;;;;;;;;20.75;16.50;;;;;17.95;100.00;99312.84;5062724;28;45402;-80
2021/11/03 00:16:58;;;;;;;;;24.50;18.50;;;;;18.06;100.00;99307.03;5058913;28;45398;-80
2021/11/03 00:19:23;;;;;;;;;13.75;13.75;;;;;18.07;100.00;99298.00;5059350;28;45458;-79
2021/11/03 00:21:48;;;;;;;;;19.25;14.75;;;;;18.10;100.00;99311.00;5057972;28;46523;-79
2021/11/03 00:24:14;;;;;;;;;12.75;11.25;;;;;18.05;100.00;99299.19;5052919;28;45547;-79
2021/11/03 00:26:39;;;;;;;;;13.50;12.25;;;;;18.09;100.00;99295.16;5064089;28;45437;-79
2021/11/03 00:29:04;;;;;;;;;19.25;15.25;;;;;18.08;100.00;99298.84;5036471;28;45657;-80
2021/11/03 00:31:30;;;;;;;;;11.25;11.25;;;;;17.95;100.00;99289.63;5057991;28;45446;-80
2021/11/03 00:33:55;;;;;;;;;18.00;16.00;;;;;17.94;100.00;99292.50;5035123;28;45434;-80
2021/11/03 00:36:21;;;;;;;;;11.00;11.00;;;;;17.96;100.00;99287.78;5059135;28;45245;-80
2021/11/03 00:38:46;;;;;;;;;16.00;15.75;;;;;17.91;100.00;99277.69;5039181;28;45698;-79
2021/11/03 00:41:11;;;;;;;;;28.75;21.25;;;;;17.99;100.00;99275.91;5059315;28;46908;-79
2021/11/03 00:43:37;;;;;;;;;20.25;15.50;;;;;17.90;100.00;99277.88;5057040;28;46491;-79
2021/11/03 00:46:03;;;;;;;;;15.00;11.00;;;;;17.79;100.00;99271.16;5061874;28;45477;-79
2021/11/03 00:48:28;;;;;;;;;14.00;11.75;;;;;17.81;100.00;99276.31;5041392;28;45495;-79
2021/11/03 00:50:55;;;;;;;;;12.50;10.75;;;;;17.85;100.00;99273.06;5055361;28;47179;-79
2021/11/03 00:53:20;;;;;;;;;14.00;13.00;;;;;17.78;100.00;99274.81;5032292;28;45733;-78
2021/11/03 00:55:46;;;;;;;;;11.00;10.75;;;;;17.80;100.00;99282.66;5054504;28;46093;-79
2021/11/03 00:58:12;;;;;;;;;17.50;11.25;;;;;17.72;100.00;99277.41;5042404;28;45473;-79
2021/11/03 01:00:37;;;;;;;;;10.50;10.25;;;;;17.60;100.00;99263.66;5060317;28;46178;-79
2021/11/03 01:03:03;;;;;;;;;15.25;12.00;;;;;17.64;100.00;99273.00;5053060;28;45259;-78
2021/11/03 01:05:29;;;;;;;;;13.75;10.25;;;;;17.54;100.00;99259.06;5050305;28;45417;-79
2021/11/03 01:07:55;;;;;;;;;16.50;11.00;;;;;17.72;100.00;99261.41;5058960;28;45598;-79
2021/11/03 01:10:24;;;;;;;;;13.00;10.75;;;;;17.69;100.00;99267.94;5059332;28;45325;-78
2021/11/03 01:12:49;;;;;;;;;13.25;10.75;;;;;17.65;100.00;99268.50;5059510;28;45644;-79
2021/11/03 01:15:18;;;;;;;;;9.75;8.75;;;;;17.78;100.00;99264.16;5037150;28;45503;-79
2021/11/03 01:17:44;;;;;;;;;7.75;6.25;;;;;17.70;100.00;99264.25;5058305;28;45708;-79
2021/11/03 01:20:12;;;;;;;;;9.75;7.75;;;;;17.74;100.00;99268.22;5059995;28;45285;-78
2021/11/03 01:22:38;;;;;;;;;8.25;7.25;;;;;17.62;100.00;99277.69;5062505;28;45193;-79
2021/11/03 01:25:05;;;;;;;;;10.25;8.25;;;;;17.56;100.00;99278.41;5044692;28;45270;-78
2021/11/03 01:27:30;;;;;;;;;13.00;11.50;;;;;17.51;100.00;99264.78;5070745;28;45730;-79
2021/11/03 01:29:56;;;;;;;;;11.75;10.25;;;;;17.69;100.00;99267.94;5066744;28;45661;-78
2021/11/03 01:32:21;;;;;;;;;13.50;10.50;;;;;17.78;100.00;99274.00;5073913;28;44745;-79
2021/11/03 01:34:47;;;;;;;;;11.00;9.50;;;;;17.78;100.00;99277.50;5041831;28;44802;-78
2021/11/03 01:37:12;;;;;;;;;7.00;7.00;;;;;17.77;100.00;99277.69;5055610;28;44837;-80
2021/11/03 01:39:38;;;;;;;;;10.75;9.25;;;;;17.73;100.00;99279.09;5044886;28;45437;-79
2021/11/03 01:42:04;;;;;;;;;9.50;9.00;;;;;17.81;100.00;99285.16;5039685;28;45399;-79
2021/11/03 01:44:29;;;;;;;;;10.75;9.00;;;;;17.82;100.00;99286.81;5053186;28;45514;-79
2021/11/03 01:47:33;;;;;;;;;12.00;8.50;;;;;17.94;100.00;99277.28;5052592;28;45299;-80
2021/11/03 01:50:00;;;;;;;;;14.00;10.00;;;;;17.86;100.00;99281.91;5019166;28;46328;-79
2021/11/03 01:52:25;;;;;;;;;16.00;10.25;;;;;17.76;100.00;99276.84;5027808;28;46104;-79
2021/11/03 01:54:55;;;;;;;;;16.75;11.25;;;;;18.00;100.00;99280.25;5041162;28;45730;-79
2021/11/03 01:57:27;;;;;;;;;11.00;9.00;;;;;17.99;100.00;99268.72;5032461;28;45537;-79
2021/11/03 01:59:59;;;;;;;;;13.50;9.25;;;;;17.91;100.00;99276.84;5045183;28;45336;-79
2021/11/03 02:02:25;;;;;;;;;16.00;13.75;;;;;17.89;100.00;99273.53;5063476;28;45616;-80
2021/11/03 02:04:51;;;;;;;;;14.50;11.50;;;;;17.87;100.00;99276.38;5030953;28;45512;-79
2021/11/03 02:07:24;;;;;;;;;13.50;8.75;;;;;17.93;100.00;99273.00;5043645;28;45411;-79
2021/11/03 02:09:51;;;;;;;;;9.00;7.00;;;;;17.96;100.00;99277.13;5057743;28;45415;-79
2021/11/03 02:12:25;;;;;;;;;6.75;6.75;;;;;18.01;100.00;99272.06;5061996;28;45441;-79
2021/11/03 02:14:52;;;;;;;;;8.75;4.75;;;;;17.84;100.00;99271.44;5061045;28;45217;-79
2021/11/03 02:17:18;;;;;;;;;14.25;9.00;;;;;17.88;100.00;99271.88;5042903;28;45452;-80
2021/11/03 02:19:45;;;;;;;;;9.00;7.00;;;;;17.85;100.00;99270.41;5026585;28;47364;-80
2021/11/03 02:22:21;;;;;;;;;13.25;8.25;;;;;17.88;100.00;99274.53;5043928;28;45458;-80
2021/11/03 02:24:58;;;;;;;;;14.50;9.75;;;;;17.93;100.00;99270.31;5058164;28;45401;-80
2021/11/03 02:27:27;;;;;;;;;13.25;9.50;;;;;17.91;100.00;99272.34;5059968;28;45565;-79
2021/11/03 02:29:53;;;;;;;;;10.00;8.00;;;;;17.89;100.00;99277.03;5060558;28;45547;-79
2021/11/03 02:32:25;;;;;;;;;11.75;8.00;;;;;17.93;100.00;99269.50;5049967;28;45331;-80
2021/11/03 02:34:51;;;;;;;;;11.00;8.00;;;;;17.83;100.00;99266.28;5049736;28;45283;-79
2021/11/03 02:37:38;;;;;;;;;11.50;7.50;;;;;17.94;100.00;99276.47;5063389;28;45488;-79
2021/11/03 02:40:16;;;;;;;;;12.25;8.00;;;;;17.98;100.00;99268.91;5042531;28;48402;-79
2021/11/03 02:42:46;;;;;;;;;12.25;9.25;;;;;17.93;100.00;99267.66;5028442;28;45570;-80
2021/11/03 02:45:20;;;;;;;;;9.75;7.50;;;;;18.02;100.00;99273.72;5057481;28;45472;-79
2021/11/03 02:47:46;;;;;;;;;10.25;7.25;;;;;17.98;100.00;99276.94;5042498;28;45343;-79
2021/11/03 02:50:13;;;;;;;;;11.00;8.50;;;;;18.07;100.00;99273.97;5060147;28;45566;-80
2021/11/03 02:52:39;;;;;;;;;12.50;8.75;;;;;17.92;100.00;99276.69;5062343;28;45489;-79
2021/11/03 02:55:07;;;;;;;;;4.75;4.00;;;;;17.95;100.00;99280.78;5042794;28;45440;-80
2021/11/03 02:57:34;;;;;;;;;6.00;4.25;;;;;17.95;100.00;99275.44;5049586;28;45514;-80
2021/11/03 03:00:00;;;;;;;;;13.00;8.00;;;;;17.96;100.00;99274.44;5059000;28;45314;-80
2021/11/03 03:02:25;;;;;;;;;9.00;8.00;;;;;17.93;100.00;99272.16;5061808;28;45539;-79
2021/11/03 03:04:53;;;;;;;;;7.00;7.00;;;;;17.98;100.00;99280.44;5060851;28;46029;-80
2021/11/03 03:07:20;;;;;;;;;7.75;7.00;;;;;17.95;100.00;99286.97;5041466;28;45955;-79
2021/11/03 03:09:46;;;;;;;;;10.25;8.00;;;;;17.95;100.00;99281.63;5041233;28;48083;-80
2021/11/03 03:12:14;;;;;;;;;8.25;8.25;;;;;17.99;100.00;99282.09;5043506;28;45444;-79
2021/11/03 03:14:42;;;;;;;;;8.50;8.25;;;;;17.90;100.00;99292.06;5060739;28;45534;-80
2021/11/03 03:17:09;;;;;;;;;11.25;8.75;;;;;17.88;100.00;99290.56;5043974;28;45712;-80
2021/11/03 03:19:35;;;;;;;;;10.50;5.00;;;;;17.86;100.00;99290.75;5065025;28;45240;-79
2021/11/03 03:22:01;;;;;;;;;10.75;7.25;;;;;17.91;100.00;99291.03;5059254;28;45749;-79
2021/11/03 03:24:26;;;;;;;;;9.00;5.00;;;;;17.99;100.00;99289.28;5061009;28;45386;-79
2021/11/03 03:26:52;;;;;;;;;9.00;7.00;;;;;18.03;100.00;99290.56;5036399;28;45460;-79
2021/11/03 03:29:17;;;;;;;;;7.75;7.00;;;;;18.01;100.00;99293.41;5063802;28;46016;-79
2021/11/03 03:31:44;;;;;;;;;13.50;9.00;;;;;17.99;100.00;99289.28;5062040;28;45258;-80
2021/11/03 03:34:14;;;;;;;;;8.75;5.50;;;;;18.08;100.00;99298.84;5061108;28;45430;-80
2021/11/03 03:36:40;;;;;;;;;5.00;5.00;;;;;18.06;100.00;99301.69;5042067;28;45959;-79
2021/11/03 03:39:08;;;;;;;;;7.75;5.25;;;;;18.02;100.00;99304.94;5061223;28;46207;-79
2021/11/03 03:41:36;;;;;;;;;7.75;7.75;;;;;18.03;100.00;99310.06;5061302;28;45654;-79
2021/11/03 03:44:02;;;;;;;;;10.25;5.50;;;;;18.00;100.00;99304.28;5053948;28;45336;-79
2021/11/03 03:46:27;;;;;;;;;11.50;7.00;;;;;17.92;100.00;99315.91;5070792;28;45309;-80
2021/11/03 03:48:53;;;;;;;;;10.50;4.75;;;;;17.98;100.00;99317.81;5061283;28;46267;-80
2021/11/03 03:51:20;;;;;;;;;8.50;7.25;;;;;17.94;100.00;99317.34;5060408;28;45241;-80
2021/11/03 03:53:46;;;;;;;;;6.25;3.25;;;;;17.88;100.00;99320.78;5043086;28;45359;-79
2021/11/03 03:56:13;;;;;;;;;5.00;3.50;;;;;17.91;100.00;99315.06;5051117;28;45519;-79
2021/11/03 03:58:40;;;;;;;;;7.75;4.00;;;;;17.90;100.00;99321.44;5069282;28;47419;-79
2021/11/03 04:01:06;;;;;;;;;4.50;3.75;;;;;17.94;100.00;99324.53;5062760;28;45162;-79
2021/11/03 04:03:32;;;;;;;;;3.25;3.25;;;;;17.95;100.00;99320.84;5061295;28;45275;-80
2021/11/03 04:05:59;;;;;;;;;4.25;4.25;;;;;17.92;100.00;99324.75;5060756;28;45236;-79
2021/11/03 04:08:24;;;;;;;;;7.25;3.25;;;;;17.84;100.00;99326.69;5042614;28;47317;-79
2021/11/03 04:10:51;;;;;;;;;3.00;3.00;;;;;17.79;100.00;99319.22;5027425;28;45534;-79
2021/11/03 04:13:16;;;;;;;;;2.75;2.75;;;;;17.81;100.00;99322.53;5053024;28;45264;-79
2021/11/03 04:15:42;;;;;;;;;2.75;2.75;;;;;17.98;100.00;99325.00;5043214;28;45388;-79
2021/11/03 04:18:08;;;;;;;;;7.00;4.75;;;;;17.94;100.00;99329.88;5055911;28;45430;-80
2021/11/03 04:20:34;;;;;;;;;4.75;4.75;;;;;17.93;100.00;99334.44;5035585;28;45450;-79
2021/11/03 04:22:59;;;;;;;;;7.50;7.50;;;;;17.94;100.00;99343.22;5042381;28;45481;-80
2021/11/03 04:25:25;;;;;;;;;6.00;5.00;;;;;17.97;100.00;99336.69;5043516;28;45335;-80
2021/11/03 04:27:51;;;;;;;;;9.00;7.75;;;;;18.01;100.00;99340.69;5057223;28;46179;-80
2021/11/03 04:30:20;;;;;;;;;10.00;9.75;;;;;18.01;100.00;99351.34;5057509;28;45780;-79
2021/11/03 04:32:45;;;;;;;;;9.50;9.50;;;;;17.94;100.00;99348.56;5053758;28;45483;-79
2021/11/03 04:35:12;;;;;;;;;9.50;7.00;;;;;17.86;100.00;99354.00;5029393;28;45479;-80
2021/11/03 04:37:38;;;;;;;;;9.75;9.75;;;;;17.86;100.00;99352.16;5064031;28;45461;-79
2021/11/03 04:40:07;;;;;;;;;12.00;10.00;;;;;17.91;100.00;99363.16;5058388;28;45644;-79
2021/11/03 04:42:33;;;;;;;;;10.25;9.25;;;;;17.83;100.00;99352.56;5040472;28;45413;-79
2021/11/03 04:44:58;;;;;;;;;10.50;9.50;;;;;17.57;100.00;99360.16;5051316;28;45463;-79
2021/11/03 04:47:24;;;;;;;;;16.50;10.50;;;;;17.74;100.00;99355.50;5027661;28;46161;-80
2021/11/03 04:49:49;;;;;;;;;16.25;12.25;;;;;17.77;100.00;99355.94;5049821;28;45533;-79
2021/11/03 04:52:14;;;;;;;;;14.50;12.75;;;;;17.71;100.00;99367.38;5050889;28;45201;-79
2021/11/03 04:54:40;;;;;;;;;20.75;16.25;;;;;17.74;100.00;99361.69;5051289;28;46805;-79
2021/11/03 04:57:07;;;;;;;;;16.25;13.25;;;;;17.70;100.00;99354.19;5047171;28;45506;-79
2021/11/03 04:59:32;;;;;;;;;16.50;14.00;;;;;17.52;100.00;99360.69;5041696;28;45392;-79
2021/11/03 05:01:58;;;;;;;;;22.25;11.50;;;;;17.53;100.00;99364.19;5058602;28;45248;-79
2021/11/03 05:04:23;;;;;;;;;14.00;13.00;;;;;17.56;100.00;99370.00;5059224;28;45366;-79
2021/11/03 05:06:49;;;;;;;;;15.25;13.75;;;;;17.50;100.00;99360.03;5060121;28;45429;-79
2021/11/03 05:09:16;;;;;;;;;17.50;15.25;;;;;17.56;100.00;99355.81;5054831;28;45501;-79
2021/11/03 05:11:42;;;;;;;;;23.75;15.75;;;;;17.58;100.00;99372.47;5027074;28;45420;-79
2021/11/03 05:14:08;;;;;;;;;23.50;17.75;;;;;17.63;100.00;99372.78;5059039;28;45583;-78
2021/11/03 05:16:34;;;;;;;;;13.00;12.00;;;;;17.68;100.00;99373.06;5062298;28;45405;-79
2021/11/03 05:19:00;;;;;;;;;20.00;14.00;;;;;17.66;100.00;99377.78;5049065;28;45161;-79
2021/11/03 05:21:26;;;;;;;;;21.75;15.25;;;;;17.66;100.00;99368.94;5042246;28;45412;-79
2021/11/03 05:23:52;;;;;;;;;21.25;14.50;;;;;17.63;100.00;99372.78;5059601;28;45523;-79
2021/11/03 05:26:22;;;;;;;;;20.50;15.50;;;;;17.68;100.00;99372.22;5049895;28;45393;-79
2021/11/03 05:28:51;;;;;;;;;21.75;15.75;;;;;17.61;100.00;99373.94;5054369;28;45504;-79
2021/11/03 05:31:17;;;;;;;;;19.25;17.50;;;;;17.60;100.00;99381.13;5057833;28;45395;-80
2021/11/03 05:33:42;;;;;;;;;18.75;16.25;;;;;17.63;100.00;99371.97;5044450;28;45418;-79
2021/11/03 05:36:15;;;;;;;;;17.75;13.00;;;;;17.53;100.00;99378.34;5028848;28;48420;-80
2021/11/03 05:38:40;;;;;;;;;16.75;15.75;;;;;17.47;100.00;99380.94;5050234;28;45276;-79
2021/11/03 05:41:06;;;;;;;;;14.75;14.25;;;;;17.57;100.00;99368.97;5059151;28;45541;-79
2021/11/03 05:43:31;;;;;;;;;20.75;16.00;;;;;17.64;100.00;99370.94;5054761;28;45306;-79
2021/11/03 05:45:56;;;;;;;;;16.00;14.00;;;;;17.69;100.00;99377.41;5053586;28;46142;-79
2021/11/03 05:48:25;;;;;;;;;17.50;14.75;;;;;17.59;100.00;99385.63;5053333;28;45342;-79
2021/11/03 05:50:50;;;;;;;;;17.50;14.00;;;;;17.48;100.00;99372.72;5057419;28;45604;-79
2021/11/03 05:53:16;;;;;;;;;17.50;14.75;;;;;17.45;100.00;99378.44;5059744;28;45172;-79
2021/11/03 05:55:41;;;;;;;;;17.00;14.00;;;;;17.50;100.00;99383.22;5057979;28;45178;-79
2021/11/03 05:58:07;;;;;;;;;20.75;15.00;;;;;17.52;100.00;99383.88;5059286;28;45298;-79
2021/11/03 06:00:38;;;;;;;;;19.25;15.00;;;;;17.56;100.00;99385.19;5055501;28;45529;-79
2021/11/03 06:03:04;;;;;;;;;12.75;11.25;;;;;17.47;100.00;99388.94;5030655;28;45942;-79
2021/11/03 06:05:30;;;;;;;;;15.50;13.25;;;;;17.44;100.00;99374.09;5057054;28;45392;-79
2021/11/03 06:08:03;;;;;;;;;19.00;14.75;;;;;17.51;100.00;99393.72;5041402;28;45287;-79
2021/11/03 06:10:34;;;;;;;;;18.25;16.00;;;;;17.50;100.00;99401.91;5058564;28;45398;-79
2021/11/03 06:13:00;;;;;;;;;21.75;16.25;;;;;17.28;100.00;99397.44;5063450;28;45310;-79
2021/11/03 06:15:27;;;;;;;;;17.00;16.25;;;;;17.31;100.00;99397.06;5059066;28;45277;-79
2021/11/03 06:17:55;;;;;;;;;23.25;16.00;;;;;17.39;100.00;99399.69;5041136;28;45403;-79
2021/11/03 06:20:22;;;;;;;;;21.00;17.00;;;;;17.37;100.00;99394.53;5044444;28;45336;-79
2021/11/03 06:22:48;;;;;;;;;24.00;17.00;;;;;17.38;100.00;99403.38;5053016;28;45443;-79
2021/11/03 06:25:16;;;;;;;;;20.50;15.00;;;;;17.31;100.00;99397.06;5042305;28;45226;-79
2021/11/03 06:27:43;;;;;;;;;24.75;18.00;;;;;17.39;100.00;99402.34;5032988;28;45349;-78
2021/11/03 06:30:10;;;;;;;;;25.50;19.50;;;;;17.45;100.00;99407.78;5042268;28;45527;-78
2021/11/03 06:32:36;;;;;;;;;19.00;16.25;;;;;17.45;100.00;99415.81;5051576;28;45678;-79
2021/11/03 06:35:06;;;;;;;;;26.50;21.75;;;;;17.49;100.00;99413.59;5048788;28;46465;-78
2021/11/03 06:37:32;;;;;;;;;26.75;23.75;;;;;17.47;100.00;99419.13;5022052;28;45427;-79
2021/11/03 06:39:57;;;;;;;;;24.00;20.25;;;;;17.39;100.00;99411.16;5041871;28;45491;-79
2021/11/03 06:42:23;;;;;;;;;23.00;20.75;;;;;17.39;100.00;99418.38;5071503;28;45285;-78
2021/11/03 06:44:49;;;;;;;;;24.25;18.50;;;;;17.46;100.00;99425.47;5055771;28;47091;-79
2021/11/03 06:47:15;;;;;;;;;29.75;21.25;;;;;17.35;100.00;99427.72;5053568;28;45414;-78
2021/11/03 06:49:41;;;;;;;;;30.00;24.25;;;;;17.28;100.00;99432.13;5043737;28;45430;-79
2021/11/03 06:52:06;;;;;;;;;29.50;21.00;;;;;17.31;100.00;99432.56;5025205;28;45349;-78
2021/11/03 06:54:32;;;;;;;;;26.00;21.75;;;;;17.28;100.00;99440.97;5059128;28;45381;-78
2021/11/03 06:56:58;;;;;;;;;30.50;23.75;;;;;17.28;100.00;99438.28;5063095;28;45163;-78
2021/11/03 06:59:24;;;;;;;;;30.00;23.25;;;;;17.23;100.00;99445.97;5055713;28;46538;-79
2021/11/03 07:01:49;;;;;;;;;20.50;19.00;;;;;17.21;100.00;99445.31;5032420;28;45426;-78
2021/11/03 07:04:15;;;;;;;;;24.00;21.00;;;;;17.25;100.00;99448.47;5043726;28;46322;-79
2021/11/03 07:06:42;;;;;;;;;30.25;21.75;;;;;17.29;100.00;99453.28;5064120;28;45450;-79
2021/11/03 07:09:08;;;;;;;;;20.25;18.25;;;;;17.37;100.00;99463.06;5075014;28;45453;-78
2021/11/03 07:11:33;;;;;;;;;27.00;22.00;;;;;17.40;100.00;99465.38;5039834;28;45566;-79
2021/11/03 07:13:59;;;;;;;;;20.50;20.25;;;;;17.41;100.00;99473.19;5071504;28;46409;-79
2021/11/03 07:16:25;;;;;;;;;26.00;20.75;;;;;17.38;100.00;99481.59;5058313;28;45378;-79
2021/11/03 07:18:51;;;;;;;;;26.25;19.75;;;;;17.34;100.00;99479.44;5056293;28;45287;-79
2021/11/03 07:21:17;;;;;;;;;20.25;19.25;;;;;17.32;100.00;99478.78;5056228;28;45579;-79
2021/11/03 07:23:42;;;;;;;;;26.00;22.00;;;;;17.23;100.00;99483.34;5025163;28;48090;-79
2021/11/03 07:26:08;;;;;;;;;22.50;15.75;;;;;17.19;100.00;99490.03;5054471;28;45904;-79
2021/11/03 07:28:36;;;;;;;;;20.50;16.75;;;;;17.26;100.00;99498.16;5043952;28;45506;-79
2021/11/03 07:31:02;;;;;;;;;23.00;19.00;;;;;17.30;100.00;99491.47;5058795;28;45437;-79
2021/11/03 07:33:28;;;;;;;;;18.50;16.25;;;;;17.31;100.00;99493.13;5057011;28;45415;-79
2021/11/03 07:35:53;;;;;;;;;16.00;16.00;;;;;17.31;100.00;99504.63;5048269;28;45450;-79
2021/11/03 07:38:19;;;;;;;;;21.75;15.75;;;;;17.32;100.00;99505.47;5043283;28;45583;-79
2021/11/03 07:40:49;;;;;;;;;18.75;13.50;;;;;17.43;100.00;99513.88;5048471;28;45604;-79
2021/11/03 07:43:16;;;;;;;;;16.75;15.50;;;;;17.49;100.00;99518.50;5044835;28;47092;-79
2021/11/03 07:45:42;;;;;;;;;16.50;13.50;;;;;17.54;100.00;99516.16;5044694;28;45831;-80
2021/11/03 07:48:09;;;;;;;;;22.50;15.00;;;;;17.52;100.00;99512.00;5061739;28;45352;-79
2021/11/03 07:50:39;;;;;;;;;21.00;17.75;;;;;17.53;100.00;99521.66;5069191;28;45490;-79
2021/11/03 07:53:06;;;;;;;;;21.50;19.25;;;;;17.42;100.00;99532.75;5053847;28;45178;-79
2021/11/03 07:55:33;;;;;;;;;23.50;17.75;;;;;17.41;100.00;99531.09;5062949;28;45851;-79
2021/11/03 07:57:58;;;;;;;;;26.25;21.00;;;;;17.36;100.00;99533.47;5044851;28;45521;-79
2021/11/03 08:00:30;;;;;;;;;21.00;19.25;;;;;17.49;100.00;99533.69;5067932;28;45391;-78
2021/11/03 08:02:56;;;;;;;;;23.00;16.75;;;;;17.38;100.00;99537.63;5060684;28;45458;-78
2021/11/03 08:05:27;;;;;;;;;18.50;15.50;;;;;17.35;100.00;99545.13;5060903;28;45363;-79
2021/11/03 08:07:52;;;;;;;;;20.00;16.75;;;;;17.39;100.00;99551.81;5060793;28;45516;-79
2021/11/03 08:10:19;;;;;;;;;17.75;16.50;;;;;17.42;100.00;99562.94;5059870;28;46622;-79
2021/11/03 08:12:45;;;;;;;;;20.50;17.00;;;;;17.30;100.00;99556.31;5042869;28;47027;-79
2021/11/03 08:15:11;;;;;;;;;18.50;17.25;;;;;17.48;100.00;99556.88;5058701;28;45510;-79
2021/11/03 08:17:39;;;;;;;;;22.50;17.25;;;;;17.70;100.00;99560.63;5060752;28;45509;-79
2021/11/03 08:20:07;;;;;;;;;21.75;15.25;;;;;17.77;100.00;99568.72;5043063;28;45514;-79
2021/11/03 08:22:34;;;;;;;;;25.75;15.25;;;;;17.83;100.00;99568.88;5051829;28;46378;-79
2021/11/03 08:24:59;;;;;;;;;22.00;16.00;;;;;17.97;100.00;99563.75;5042573;28;45385;-79
2021/11/03 08:27:25;;;;;;;;;20.00;15.75;;;;;18.17;100.00;99570.25;5060054;28;45432;-79
2021/11/03 08:29:51;;;;;;;;;15.00;11.75;;;;;18.35;100.00;99573.44;5042449;28;45584;-78
2021/11/03 08:32:21;;;;;;;;;19.25;17.25;;;;;18.30;100.00;99567.78;5023679;28;48279;-80
2021/11/03 08:34:47;;;;;;;;;20.00;15.00;;;;;18.26;100.00;99586.03;5040796;28;45381;-79
2021/11/03 08:37:16;;;;;;;;;18.75;15.50;;;;;18.41;100.00;99585.22;5037441;28;45480;-79
2021/11/03 08:39:47;;;;;;;;;17.75;16.00;;;;;18.38;100.00;99597.13;5010256;28;45497;-79
2021/11/03 08:42:12;;;;;;;;;19.00;15.25;;;;;18.38;100.00;99598.97;5039140;28;45513;-79
2021/11/03 08:44:40;;;;;;;;;16.50;14.00;;;;;18.43;100.00;99599.25;5029985;28;45391;-79
2021/11/03 08:47:07;;;;;;;;;19.00;15.25;;;;;18.44;100.00;99599.06;5006773;28;45380;-78
2021/11/03 08:49:34;;;;;;;;;23.25;17.00;;;;;18.37;100.00;99594.63;5040216;28;45856;-79
2021/11/03 08:51:59;;;;;;;;;20.00;17.25;;;;;18.25;100.00;99595.06;5009348;28;46646;-79
2021/11/03 08:54:25;;;;;;;;;29.50;20.75;;;;;18.55;100.00;99595.13;5040769;28;45451;-79
2021/11/03 08:56:51;;;;;;;;;25.50;20.25;;;;;18.91;100.00;99598.75;5053641;28;46380;-79
2021/11/03 08:59:16;;;;;;;;;24.00;18.50;;;;;19.20;100.00;99603.28;5039388;28;45241;-79
2021/11/03 09:01:44;;;;;;;;;18.50;16.25;;;;;19.31;100.00;99597.41;5014545;28;46326;-79
2021/11/03 09:04:10;;;;;;;;;20.75;17.25;;;;;19.11;100.00;99599.03;5008563;28;45515;-79
2021/11/03 09:06:36;;;;;;;;;18.50;18.25;;;;;19.07;100.00;99600.41;5041830;28;45471;-79
2021/11/03 09:09:04;;;;;;;;;26.25;18.75;;;;;19.13;100.00;99599.66;5029935;28;45637;-79
2021/11/03 09:11:29;;;;;;;;;16.00;11.00;;;;;19.23;100.00;99615.44;5039687;28;46523;-80
2021/11/03 09:13:55;;;;;;;;;25.75;20.25;;;;;19.37;99.90;99607.38;5020290;28;45396;-80
2021/11/03 09:16:21;;;;;;;;;26.50;21.25;;;;;19.37;97.99;99610.06;5022944;28;45424;-80
2021/11/03 09:18:47;;;;;;;;;25.25;21.00;;;;;19.20;97.43;99611.31;5039676;28;45226;-79
2021/11/03 09:21:14;;;;;;;;;21.25;18.50;;;;;19.01;97.35;99617.22;5039497;28;45722;-79
2021/11/03 09:23:40;;;;;;;;;23.75;20.00;;;;;19.11;97.48;99622.28;5021365;28;45761;-79
2021/11/03 09:26:06;;;;;;;;;19.75;18.25;;;;;19.22;98.39;99625.31;5034923;28;45253;-77
2021/11/03 09:28:33;;;;;;;;;21.00;15.25;;;;;19.47;97.90;99625.00;5029143;28;45482;-80
2021/11/03 09:31:04;;;;;;;;;18.50;15.75;;;;;19.36;97.49;99620.97;5021896;28;48749;-80
2021/11/03 09:33:33;;;;;;;;;19.75;14.50;;;;;19.61;96.22;99634.88;5040167;28;45341;-80
2021/11/03 09:35:59;;;;;;;;;22.50;15.75;;;;;19.60;95.66;99634.03;5022703;28;45399;-80
2021/11/03 09:38:27;;;;;;;;;20.50;16.25;;;;;19.40;92.80;99644.47;5040195;28;46193;-80
2021/11/03 09:40:58;;;;;;;;;25.50;18.50;;;;;19.48;93.19;99640.09;5021858;28;47784;-80
2021/11/03 09:43:36;;;;;;;;;19.75;16.00;;;;;20.01;93.91;99650.38;5022100;28;45584;-80
2021/11/03 09:46:15;;;;;;;;;20.75;15.75;;;;;20.22;92.35;99644.16;5041038;28;45234;-81
2021/11/03 09:48:41;;;;;;;;;17.00;16.50;;;;;19.96;90.77;99662.66;5042300;28;45284;-81
2021/11/03 09:51:17;;;;;;;;;21.50;18.00;;;;;20.34;94.69;99647.16;5022197;28;48289;-80
2021/11/03 09:53:48;;;;;;;;;19.00;16.00;;;;;20.61;92.33;99656.28;5039993;28;45320;-80
2021/11/03 09:56:22;;;;;;;;;21.75;17.25;;;;;20.75;92.62;99656.19;5040112;28;45500;-80
2021/11/03 09:59:23;;;;;;;;;26.50;19.50;;;;;21.14;91.42;99660.97;5020184;28;45248;-81
2021/11/03 10:01:56;;;;;;;;;21.00;20.75;;;;;21.15;85.63;99656.44;5001836;28;47401;-81
2021/11/03 10:04:43;;;;;;;;;22.50;17.25;;;;;21.41;89.48;99653.06;5019721;28;45642;-81
2021/11/03 10:07:22;;;;;;;;;21.00;19.00;;;;;21.92;87.27;99658.84;5001994;28;45382;-81
2021/11/03 10:09:48;;;;;;;;;19.00;16.00;;;;;22.26;87.35;99664.13;5019722;28;45312;-80
2021/11/03 10:12:17;;;;;;;;;19.75;17.00;;;;;22.84;83.76;99661.66;5001454;28;46986;-81
2021/11/03 10:14:43;;;;;;;;;21.50;18.00;;;;;22.92;77.09;99661.44;5021830;28;45451;-81
2021/11/03 10:17:28;;;;;;;;;16.25;13.00;;;;;22.90;79.97;99663.50;5041294;28;45326;-81
2021/11/03 10:19:56;;;;;;;;;13.00;13.00;;;;;22.93;81.25;99662.28;5043586;28;45260;-81
2021/11/03 10:22:36;;;;;;;;;13.25;13.25;;;;;23.27;80.37;99658.47;5025492;28;45998;-81
2021/11/03 10:25:09;;;;;;;;;17.75;15.25;;;;;23.21;79.39;99653.94;5028656;28;45507;-80
2021/11/03 10:27:43;;;;;;;;;24.25;16.25;;;;;23.09;78.49;99662.66;5035977;28;45452;-80
2021/11/03 10:30:48;;;;;;;;;19.75;16.75;;;;;22.84;77.18;99668.91;5073683;28;45268;-81
2021/11/03 10:33:23;;;;;;;;;18.50;14.25;;;;;22.48;77.48;99663.94;5026611;28;47519;-81
2021/11/03 10:36:00;;;;;;;;;20.00;16.00;;;;;22.24;77.34;99673.41;5024733;28;45527;-81
2021/11/03 10:38:34;;;;;;;;;17.75;15.25;;;;;22.10;78.22;99679.81;5031454;28;45472;-81
2021/11/03 10:41:03;;;;;;;;;18.50;17.25;;;;;22.07;78.45;99681.03;5062211;28;45379;-80
2021/11/03 10:43:41;;;;;;;;;18.50;17.75;;;;;22.09;77.00;99681.69;5062348;28;45518;-80
2021/11/03 10:46:27;;;;;;;;;16.25;14.75;;;;;22.20;78.31;99685.63;5062077;28;45201;-80
2021/11/03 10:49:09;;;;;;;;;18.75;18.75;;;;;22.31;76.23;99688.53;5043822;28;45318;-80
2021/11/03 10:51:39;;;;;;;;;17.75;13.25;;;;;22.61;78.50;99678.19;5061696;28;45308;-81
2021/11/03 10:54:15;;;;;;;;;19.75;15.50;;;;;23.08;76.24;99679.84;5043222;28;45657;-80
2021/11/03 10:56:54;;;;;;;;;17.00;13.25;;;;;23.04;73.72;99681.28;5062918;28;45434;-80
2021/11/03 10:59:20;;;;;;;;;21.00;15.75;;;;;23.06;74.81;99681.09;5025888;28;45450;-80
2021/11/03 11:01:47;;;;;;;;;17.25;14.75;;;;;23.20;75.03;99671.13;5045108;28;45391;-81
2021/11/03 11:04:21;;;;;;;;;17.00;16.75;;;;;23.45;74.27;99675.59;5046496;28;46258;-80
2021/11/03 11:06:50;;;;;;;;;20.50;17.50;;;;;23.30;72.81;99675.03;5044755;28;45329;-80
2021/11/03 11:09:18;;;;;;;;;14.75;13.25;;;;;23.27;74.97;99674.63;5051233;28;45294;-81
2021/11/03 11:11:46;;;;;;;;;18.00;13.50;;;;;23.18;73.39;99671.34;5045745;28;46143;-80
2021/11/03 11:14:19;;;;;;;;;14.25;11.50;;;;;23.25;73.23;99682.91;5058636;28;45355;-80
2021/11/03 11:16:54;;;;;;;;;17.00;13.25;;;;;23.17;72.98;99668.84;5062137;28;45414;-81
2021/11/03 11:19:31;;;;;;;;;13.25;12.50;;;;;23.05;74.06;99674.88;5063420;28;45411;-81